Time;durP1;ratioP1;P1;durP2;ratioP2;P2;SDS_P1;SDS_P2;PMS_P1;PMS_P2;Temp;Humidity;BMP_temperature;BMP_pressure;BME280_temperature;BME280_humidity;BME280_pressure;Samples;Min_cycle;Max_cycle;Signal;HPM_P1;HPM_P2
2021/04/08 00:00:59;;;;;;;7.87;5.83;;;;;;;3.83;82.60;99387.03;1773094;81;21301;-80
2021/04/08 00:04:05;;;;;;;7.15;6.20;;;;;;;3.77;82.05;99384.95;1777086;81;21325;-81
2021/04/08 00:07:12;;;;;;;5.78;5.00;;;;;;;3.72;81.86;99385.92;1773271;81;21198;-80
2021/04/08 00:10:18;;;;;;;6.20;4.60;;;;;;;3.65;81.40;99391.59;1777173;79;21855;-80
2021/04/08 00:13:24;;;;;;;6.20;4.50;;;;;;;3.63;81.23;99409.84;1773440;81;21717;-80
2021/04/08 00:16:23;;;;;;;5.47;4.65;;;;;;;3.60;80.98;99406.08;1777071;81;21289;-80
2021/04/08 00:19:28;;;;;;;5.72;4.65;;;;;;;3.58;80.67;99416.21;1773469;81;21269;-80
2021/04/08 00:22:34;;;;;;;4.65;4.12;;;;;;;3.56;80.57;99446.59;1765682;81;21329;-80
2021/04/08 00:25:39;;;;;;;5.42;4.37;;;;;;;3.56;80.35;99462.82;1773309;81;21273;-80
2021/04/08 00:28:44;;;;;;;5.62;4.35;;;;;;;3.54;80.28;99479.20;1777071;81;21281;-80
2021/04/08 00:31:50;;;;;;;6.33;4.40;;;;;;;3.53;80.09;99465.34;1773218;81;21293;-80
2021/04/08 00:34:57;;;;;;;4.45;4.03;;;;;;;3.52;79.88;99465.47;1777209;81;21688;-80
2021/04/08 00:38:02;;;;;;;3.83;3.42;;;;;;;3.52;79.76;99458.21;1755013;81;21206;-80
2021/04/08 00:41:10;;;;;;;4.03;3.60;;;;;;;3.51;79.54;99467.33;1777246;79;21150;-80
2021/04/08 00:44:17;;;;;;;4.37;3.98;;;;;;;3.54;79.40;99471.59;1773416;81;21280;-80
2021/04/08 00:47:21;;;;;;;4.40;4.00;;;;;;;3.54;79.03;99474.30;1777224;81;21189;-80
2021/04/08 00:50:28;;;;;;;5.58;4.03;;;;;;;3.52;78.91;99476.29;1773354;81;21317;-80
2021/04/08 00:53:37;;;;;;;4.67;3.80;;;;;;;3.50;78.98;99462.09;1777250;81;21815;-80
2021/04/08 00:56:42;;;;;;;4.10;3.70;;;;;;;3.48;78.82;99472.19;1773320;79;21280;-80
2021/04/08 00:59:47;;;;;;;6.22;4.15;;;;;;;3.46;79.04;99485.86;1777213;81;21277;-80
2021/04/08 01:02:52;;;;;;;4.10;3.70;;;;;;;3.44;79.00;99482.98;1773066;81;21186;-80
2021/04/08 01:05:57;;;;;;;4.95;3.77;;;;;;;3.43;78.99;99497.47;1777133;81;21273;-80
2021/04/08 01:09:05;;;;;;;4.20;3.80;;;;;;;3.41;79.12;99500.84;1771674;81;21174;-80
2021/04/08 01:12:12;;;;;;;6.10;4.95;;;;;;;3.40;79.26;99493.73;1776758;81;21308;-80
2021/04/08 01:15:18;;;;;;;5.33;4.70;;;;;;;3.38;79.21;99501.98;1773179;81;21877;-80
2021/04/08 01:18:43;;;;;;;7.00;5.30;;;;;;;3.36;79.10;99513.45;1775378;79;21214;-80
2021/04/08 01:22:00;;;;;;;6.83;4.97;;;;;;;3.33;79.13;99515.09;1773206;81;21285;-80
2021/04/08 01:25:25;;;;;;;5.78;5.08;;;;;;;3.30;79.04;99525.72;1775412;79;21163;-80
2021/04/08 01:28:45;;;;;;;5.75;5.00;;;;;;;3.28;79.25;99522.30;1772126;81;21940;-80
2021/04/08 01:31:50;;;;;;;4.65;3.70;;;;;;;3.25;79.18;99511.80;1776903;81;21297;-80
2021/04/08 01:34:58;;;;;;;5.35;4.75;;;;;;;3.21;79.23;99521.20;1747116;81;21315;-80
2021/04/08 01:38:14;;;;;;;5.58;4.95;;;;;;;3.16;79.22;99516.75;1736636;82;21298;-80
2021/04/08 01:41:20;;;;;;;7.15;5.05;;;;;;;3.14;79.35;99525.98;1736182;82;21314;-80
2021/04/08 01:44:29;;;;;;;5.97;4.80;;;;;;;3.10;79.19;99529.48;1727353;82;21478;-80
2021/04/08 01:47:34;;;;;;;7.35;5.12;;;;;;;3.06;79.08;99555.12;1726926;82;21286;-80
2021/04/08 01:50:40;;;;;;;5.78;4.80;;;;;;;3.02;79.36;99551.85;1737379;82;21212;-80
2021/04/08 01:54:06;;;;;;;5.28;4.70;;;;;;;3.04;79.55;99550.34;1737325;82;21302;-80
2021/04/08 01:57:15;;;;;;;8.05;5.40;;;;;;;3.04;79.33;99548.48;1707072;84;21509;-80
2021/04/08 02:00:24;;;;;;;6.75;5.28;;;;;;;3.01;79.20;99562.31;1707724;84;21804;-80
2021/04/08 02:03:29;;;;;;;5.03;4.53;;;;;;;3.02;79.47;99565.86;1695331;83;21326;-80
2021/04/08 02:06:39;;;;;;;6.20;5.25;;;;;;;3.04;79.45;99571.95;1707904;84;21306;-80
2021/04/08 02:09:44;;;;;;;6.80;5.28;;;;;;;3.03;79.42;99568.41;1708374;82;21224;-80
2021/04/08 02:12:55;;;;;;;6.90;5.40;;;;;;;3.03;79.42;99604.03;1737423;82;21294;-80
2021/04/08 02:16:02;;;;;;;6.33;5.30;;;;;;;2.98;79.37;99593.66;1735974;80;21157;-80
2021/04/08 02:19:09;;;;;;;6.25;5.22;;;;;;;2.96;79.54;99599.69;1724396;82;21720;-80
2021/04/08 02:22:15;;;;;;;6.85;5.67;;;;;;;2.94;79.71;99611.66;1737139;82;21318;-80
2021/04/08 02:25:22;;;;;;;6.87;5.80;;;;;;;2.92;79.65;99615.86;1737158;82;21279;-80
2021/04/08 02:28:26;;;;;;;7.22;5.50;;;;;;;2.90;79.59;99611.59;1737437;82;21188;-80
2021/04/08 02:31:32;;;;;;;7.08;5.70;;;;;;;2.86;79.64;99625.02;1737495;82;21808;-80
2021/04/08 02:34:37;;;;;;;8.00;5.83;;;;;;;2.85;79.83;99625.52;1742792;78;21904;-80
2021/04/08 02:37:44;;;;;;;9.00;6.00;;;;;;;2.85;80.07;99626.87;1757299;81;21201;-80
2021/04/08 02:40:50;;;;;;;9.08;6.40;;;;;;;2.83;80.34;99634.28;1768659;80;21258;-80
2021/04/08 02:43:57;;;;;;;7.30;5.80;;;;;;;2.86;80.56;99646.62;1757330;81;21292;-80
2021/04/08 02:47:03;;;;;;;7.50;5.70;;;;;;;2.85;80.58;99667.39;1741389;81;21789;-80
2021/04/08 02:50:08;;;;;;;6.75;5.15;;;;;;;2.81;80.86;99671.37;1768684;81;21831;-80
2021/04/08 02:53:44;;;;;;;7.85;5.65;;;;;;;2.80;81.11;99673.22;1717309;82;21289;-80
2021/04/08 02:56:51;;;;;;;9.13;6.35;;;;;;;2.79;81.20;99675.57;1731073;82;21596;-80
2021/04/08 03:00:05;;;;;;;8.23;5.65;;;;;;;2.77;81.25;99677.55;1750910;81;21282;-80
2021/04/08 03:03:13;;;;;;;10.38;6.67;;;;;;;2.75;81.37;99686.30;1767196;81;21301;-80
2021/04/08 03:06:19;;;;;;;10.95;6.83;;;;;;;2.74;81.43;99695.91;1768822;81;21685;-80
2021/04/08 03:09:26;;;;;;;8.83;6.83;;;;;;;2.73;81.49;99696.87;1771576;79;21897;-80
2021/04/08 03:12:31;;;;;;;11.03;7.55;;;;;;;2.67;81.45;99705.55;1757158;80;21301;-80
2021/04/08 03:15:40;;;;;;;12.18;7.08;;;;;;;2.62;81.53;99704.61;1755497;79;21242;-80
2021/04/08 03:18:48;;;;;;;10.85;7.20;;;;;;;2.60;81.51;99716.07;1753951;81;21284;-80
2021/04/08 03:21:54;;;;;;;8.23;5.72;;;;;;;2.62;81.51;99721.31;1743232;81;21264;-80
2021/04/08 03:25:01;;;;;;;9.35;6.53;;;;;;;2.63;81.54;99718.97;1757365;80;21807;-80
2021/04/08 03:28:06;;;;;;;11.68;7.60;;;;;;;2.63;81.52;99726.56;1737538;80;21261;-80
2021/04/08 03:31:12;;;;;;;10.48;6.85;;;;;;;2.63;81.52;99741.92;1772298;80;21301;-80
2021/04/08 03:34:16;;;;;;;8.48;6.10;;;;;;;2.61;81.61;99749.32;1750939;81;21293;-80
2021/04/08 03:37:23;;;;;;;11.88;6.80;;;;;;;2.63;81.66;99740.07;1758932;80;21284;-80
2021/04/08 03:40:27;;;;;;;8.35;5.92;;;;;;;2.65;81.73;99755.66;1775481;80;21172;-80
2021/04/08 03:43:33;;;;;;;11.20;6.58;;;;;;;2.69;81.69;99753.54;1788374;80;21185;-80
2021/04/08 03:46:39;;;;;;;10.60;6.92;;;;;;;2.73;81.56;99769.32;1788526;80;21809;-80
2021/04/08 03:49:45;;;;;;;11.97;7.22;;;;;;;2.77;81.55;99779.33;1770960;80;21200;-80
2021/04/08 03:52:50;;;;;;;10.13;7.75;;;;;;;2.79;81.51;99783.61;1763427;80;21791;-81
2021/04/08 03:55:56;;;;;;;13.53;7.75;;;;;;;2.81;81.55;99784.31;1732795;81;21129;-81
2021/04/08 03:59:02;;;;;;;10.60;7.20;;;;;;;2.85;81.44;99788.09;1765803;81;21788;-81
2021/04/08 04:02:07;;;;;;;12.05;8.35;;;;;;;2.91;81.32;99802.38;1717833;82;21729;-81
2021/04/08 04:05:16;;;;;;;13.38;8.60;;;;;;;2.97;81.12;99797.80;1738032;81;21298;-81
2021/04/08 04:08:22;;;;;;;14.30;10.43;;;;;;;3.08;80.92;99813.87;1717040;81;21300;-81
2021/04/08 04:11:28;;;;;;;15.43;10.00;;;;;;;3.15;80.58;99819.55;1767058;80;21843;-81
2021/04/08 04:14:34;;;;;;;13.50;8.03;;;;;;;3.22;80.49;99824.27;1745510;81;21277;-81
2021/04/08 04:17:39;;;;;;;18.10;11.60;;;;;;;3.28;80.22;99830.45;1768403;81;21863;-81
2021/04/08 04:20:47;;;;;;;20.32;11.70;;;;;;;3.31;79.72;99819.36;1784840;80;21275;-81
2021/04/08 04:23:52;;;;;;;17.98;11.80;;;;;;;3.32;79.49;99830.52;1786172;80;21292;-81
2021/04/08 04:26:57;;;;;;;21.62;13.72;;;;;;;3.35;79.41;99820.44;1729832;80;21774;-81
2021/04/08 04:30:04;;;;;;;24.57;15.00;;;;;;;3.36;79.20;99817.58;1750775;80;21773;-81
2021/04/08 04:33:09;;;;;;;22.73;14.03;;;;;;;3.32;78.98;99819.70;1744899;80;21314;-81
2021/04/08 04:36:15;;;;;;;21.70;13.60;;;;;;;3.30;79.04;99827.13;1740295;80;21311;-81
2021/04/08 04:39:20;;;;;;;24.35;15.45;;;;;;;3.30;79.02;99829.83;1739707;80;21162;-81
2021/04/08 04:42:26;;;;;;;24.90;15.23;;;;;;;3.35;79.03;99831.25;1734140;81;21160;-81
2021/04/08 04:45:32;;;;;;;28.38;15.38;;;;;;;3.37;78.90;99827.89;1755951;80;21904;-81
2021/04/08 04:48:38;;;;;;;20.43;13.80;;;;;;;3.39;78.66;99832.65;1742768;80;21292;-81
2021/04/08 04:51:44;;;;;;;19.75;14.18;;;;;;;3.42;78.44;99849.95;1740056;80;21290;-81
2021/04/08 04:54:49;;;;;;;20.52;12.80;;;;;;;3.47;78.44;99857.14;1743110;80;21265;-81
2021/04/08 04:57:54;;;;;;;21.87;12.60;;;;;;;3.51;78.21;99860.77;1740887;80;21837;-81
2021/04/08 05:00:59;;;;;;;18.45;12.03;;;;;;;3.51;77.81;99870.23;1752386;80;22121;-81
2021/04/08 05:04:06;;;;;;;19.42;12.70;;;;;;;3.53;77.73;99857.44;1751557;80;21231;-80
2021/04/08 05:07:11;;;;;;;19.75;13.22;;;;;;;3.58;77.70;99871.89;1736557;80;21292;-80
2021/04/08 05:10:18;;;;;;;22.67;13.22;;;;;;;3.63;77.40;99868.26;1755853;80;21141;-81
2021/04/08 05:13:24;;;;;;;21.55;12.65;;;;;;;3.65;76.72;99873.52;1750837;80;21287;-81
2021/04/08 05:16:30;;;;;;;16.35;10.70;;;;;;;3.69;76.69;99881.20;1739995;81;21751;-80
2021/04/08 05:19:35;;;;;;;25.27;12.90;;;;;;;3.66;75.87;99883.33;1748077;80;21188;-81
2021/04/08 05:22:40;;;;;;;19.00;12.40;;;;;;;3.61;75.54;99886.95;1757688;80;21282;-81
2021/04/08 05:25:46;;;;;;;19.37;12.58;;;;;;;3.62;75.93;99890.86;1750866;80;21606;-80
2021/04/08 05:28:52;;;;;;;19.42;11.50;;;;;;;3.62;75.66;99896.27;1748474;80;21307;-80
2021/04/08 05:31:58;;;;;;;21.90;12.00;;;;;;;3.59;75.55;99908.25;1749519;80;21307;-80
2021/04/08 05:35:09;;;;;;;16.62;11.33;;;;;;;3.63;75.43;99903.92;1740246;80;21678;-80
2021/04/08 05:38:16;;;;;;;24.67;13.43;;;;;;;3.67;75.21;99896.73;1753416;79;21274;-81
2021/04/08 05:41:23;;;;;;;22.27;12.35;;;;;;;3.67;74.57;99910.26;1744092;79;21163;-81
2021/04/08 05:44:30;;;;;;;17.85;10.03;;;;;;;3.66;74.51;99905.81;1772512;79;21730;-81
2021/04/08 05:47:35;;;;;;;19.10;11.08;;;;;;;3.72;74.91;99912.03;1763942;79;21164;-81
2021/04/08 05:50:40;;;;;;;16.52;9.93;;;;;;;3.78;74.89;99909.25;1756282;79;21248;-81
2021/04/08 05:53:49;;;;;;;15.83;10.35;;;;;;;3.82;74.74;99895.30;1750820;79;22232;-81
2021/04/08 05:57:02;;;;;;;18.30;9.98;;;;;;;3.86;73.20;99898.58;1739791;80;21776;-80
2021/04/08 06:00:08;;;;;;;18.25;10.40;;;;;;;3.85;73.12;99903.11;1742354;81;21314;-81
2021/04/08 06:03:18;;;;;;;18.50;9.25;;;;;;;3.89;73.93;99905.03;1752551;80;21942;-80
2021/04/08 06:06:23;;;;;;;18.52;9.28;;;;;;;3.92;73.46;99912.88;1752176;80;21945;-81
2021/04/08 06:09:28;;;;;;;15.70;9.60;;;;;;;3.82;73.59;99918.30;1751837;79;21186;-81
2021/04/08 06:12:34;;;;;;;21.73;10.05;;;;;;;3.81;74.58;99925.17;1730821;81;21383;-81
2021/04/08 06:15:40;;;;;;;16.05;10.20;;;;;;;3.99;75.43;99930.73;1723483;80;21312;-81
2021/04/08 06:18:46;;;;;;;18.20;9.55;;;;;;;4.29;74.50;99922.95;1743265;80;21648;-81
2021/04/08 06:21:53;;;;;;;15.88;9.90;;;;;;;4.56;73.44;99928.92;1727141;81;21730;-81
2021/04/08 06:24:59;;;;;;;15.28;9.65;;;;;;;4.72;72.05;99929.17;1714222;81;21998;-81
2021/04/08 06:28:05;;;;;;;15.90;9.13;;;;;;;4.86;71.99;99921.91;1746182;81;21218;-81
2021/04/08 06:31:10;;;;;;;16.57;9.35;;;;;;;4.96;70.96;99921.02;1722093;81;21202;-81
2021/04/08 06:34:15;;;;;;;15.58;8.38;;;;;;;4.94;69.46;99927.06;1742140;79;21178;-82
2021/04/08 06:37:20;;;;;;;14.43;8.13;;;;;;;4.96;70.12;99933.21;1758965;79;21341;-80
2021/04/08 06:40:27;;;;;;;16.97;9.80;;;;;;;4.98;69.59;99937.46;1729572;80;21290;-81
2021/04/08 06:43:33;;;;;;;21.23;9.65;;;;;;;5.01;69.92;99938.53;1686953;81;21721;-81
2021/04/08 06:46:42;;;;;;;16.15;8.63;;;;;;;5.10;69.48;99946.27;1739885;80;21926;-81
2021/04/08 06:49:58;;;;;;;13.60;7.60;;;;;;;5.27;69.17;99946.84;1751583;80;21288;-81
2021/04/08 06:53:03;;;;;;;12.90;7.65;;;;;;;5.50;68.15;99954.53;1745991;80;21293;-81
2021/04/08 06:56:09;;;;;;;12.18;7.20;;;;;;;5.69;66.39;99967.11;1702052;81;21336;-81
2021/04/08 06:59:16;;;;;;;10.43;6.42;;;;;;;5.87;65.77;99966.12;1758595;79;21163;-83
2021/04/08 07:02:28;;;;;;;13.50;7.20;;;;;;;6.01;64.78;99965.27;1722541;81;21815;-82
2021/04/08 07:05:34;;;;;;;12.90;7.72;;;;;;;6.14;64.44;99960.30;1729025;81;21293;-83
2021/04/08 07:08:39;;;;;;;11.75;6.58;;;;;;;6.26;63.82;99967.22;1713520;81;21165;-82
2021/04/08 07:11:46;;;;;;;13.95;7.08;;;;;;;6.36;62.90;99964.41;1740176;80;21878;-80
2021/04/08 07:14:51;;;;;;;9.18;5.90;;;;;;;6.47;60.07;99960.58;1739955;80;21822;-81
2021/04/08 07:17:59;;;;;;;14.55;7.25;;;;;;;6.61;60.77;99953.20;1720448;81;21182;-81
2021/04/08 07:21:04;;;;;;;11.33;6.58;;;;;;;6.76;61.35;99961.11;1752276;79;21198;-81
2021/04/08 07:24:28;;;;;;;12.50;6.45;;;;;;;6.91;58.45;99970.37;1728612;81;21285;-81
2021/04/08 07:27:34;;;;;;;11.50;6.35;;;;;;;7.00;58.03;99979.43;1725942;80;21305;-81
2021/04/08 07:30:42;;;;;;;11.48;5.78;;;;;;;6.98;57.34;99979.27;1742368;80;21253;-81
2021/04/08 07:34:08;;;;;;;9.73;5.83;;;;;;;7.02;57.03;99984.22;1725370;81;21170;-81
2021/04/08 07:37:14;;;;;;;12.00;6.17;;;;;;;7.15;57.05;99987.83;1689035;83;21196;-77
2021/04/08 07:40:25;;;;;;;10.32;5.53;;;;;;;7.30;55.80;99988.95;1683322;83;21168;-78
2021/04/08 07:43:24;;;;;;;10.78;6.10;;;;;;;7.42;55.09;99990.34;1682574;82;22510;-78
2021/04/08 07:46:43;;;;;;;10.15;4.75;;;;;;;7.48;52.80;99998.39;1688665;83;21200;-79
2021/04/08 07:49:48;;;;;;;11.28;5.17;;;;;;;7.53;51.60;100006.91;1707305;82;21200;-79
2021/04/08 07:52:57;;;;;;;8.08;4.58;;;;;;;7.58;51.39;100015.95;1683618;83;21247;-79
2021/04/08 07:56:03;;;;;;;10.93;4.90;;;;;;;7.62;51.87;100018.17;1687844;83;21361;-80
2021/04/08 07:59:33;;;;;;;9.43;4.50;;;;;;;7.58;49.96;100022.75;1696839;82;21268;-77
2021/04/08 08:02:41;;;;;;;8.95;4.05;;;;;;;7.56;49.11;100017.45;1693443;83;21220;-78
2021/04/08 08:05:51;;;;;;;10.00;4.62;;;;;;;7.53;47.36;100014.20;1678100;82;21359;-77
2021/04/08 08:08:56;;;;;;;7.35;4.75;;;;;;;7.56;49.09;100017.45;1699489;82;21796;-77
2021/04/08 08:12:06;;;;;;;7.47;4.28;;;;;;;7.62;50.39;100011.85;1692430;82;21544;-77
2021/04/08 08:15:30;;;;;;;9.88;4.85;;;;;;;7.70;48.97;100013.25;1704338;82;21350;-77
2021/04/08 08:18:49;;;;;;;9.65;4.33;;;;;;;7.77;48.78;100004.78;1676252;84;21177;-77
2021/04/08 08:21:58;;;;;;;10.00;4.80;;;;;;;7.80;48.19;99996.26;1718021;82;21228;-78
2021/04/08 08:25:05;;;;;;;9.65;4.78;;;;;;;7.84;47.40;100004.95;1720156;82;21310;-78
2021/04/08 08:28:11;;;;;;;11.83;4.85;;;;;;;7.97;47.69;100010.78;1715311;82;21177;-80
2021/04/08 08:31:17;;;;;;;8.68;4.03;;;;;;;8.13;47.65;100008.59;1716418;82;21839;-79
2021/04/08 08:34:32;;;;;;;6.67;3.92;;;;;;;8.29;45.30;100006.41;1714940;82;21364;-79
2021/04/08 08:37:38;;;;;;;7.65;4.00;;;;;;;8.37;44.19;100012.73;1696020;82;21855;-79
2021/04/08 08:40:45;;;;;;;6.72;3.98;;;;;;;8.40;42.90;100012.91;1708040;82;21279;-79
2021/04/08 08:43:51;;;;;;;10.80;4.80;;;;;;;8.41;43.88;100004.56;1705641;82;21314;-79
2021/04/08 08:47:21;;;;;;;10.55;4.00;;;;;;;8.42;43.78;100008.12;1695191;82;21743;-79
2021/04/08 08:50:25;;;;;;;6.85;3.90;;;;;;;8.47;45.18;100000.33;1705336;82;21312;-79
2021/04/08 08:53:33;;;;;;;8.83;4.12;;;;;;;8.52;42.94;100022.47;1701034;82;21256;-79
2021/04/08 08:56:42;;;;;;;7.55;4.03;;;;;;;8.50;41.62;100023.65;1704363;82;21765;-79
2021/04/08 08:59:52;;;;;;;6.60;3.47;;;;;;;8.44;39.99;100021.95;1687309;82;21157;-79
2021/04/08 09:02:59;;;;;;;7.58;3.87;;;;;;;8.34;40.61;100023.95;1647636;84;21298;-78
2021/04/08 09:06:06;;;;;;;6.80;3.55;;;;;;;8.31;39.59;100014.74;1664142;84;21404;-78
2021/04/08 09:09:14;;;;;;;7.35;3.95;;;;;;;8.42;41.60;100002.68;1640713;84;21255;-77
2021/04/08 09:12:20;;;;;;;9.28;3.98;;;;;;;8.53;43.25;100004.23;1713700;82;21513;-78
2021/04/08 09:15:25;;;;;;;6.47;3.58;;;;;;;8.60;42.18;100018.36;1718919;82;21365;-77
2021/04/08 09:18:32;;;;;;;10.13;3.92;;;;;;;8.73;43.09;100025.19;1714123;82;21262;-76
2021/04/08 09:21:57;;;;;;;5.40;3.25;;;;;;;8.79;43.70;100032.16;1714571;82;21317;-77
2021/04/08 09:25:03;;;;;;;8.23;4.30;;;;;;;8.85;42.88;100027.91;1669865;84;22023;-77
2021/04/08 09:28:11;;;;;;;7.70;4.75;;;;;;;8.88;42.08;100031.13;1684368;84;21332;-77
2021/04/08 09:31:20;;;;;;;10.05;4.60;;;;;;;8.84;40.22;100033.85;1661809;84;21356;-78
2021/04/08 09:34:24;;;;;;;7.00;3.65;;;;;;;8.75;41.07;100036.27;1629465;84;22602;-78
2021/04/08 09:37:30;;;;;;;7.05;3.67;;;;;;;8.75;41.54;100030.82;1654350;85;21316;-77
2021/04/08 09:40:47;;;;;;;8.55;3.72;;;;;;;8.87;41.05;100029.43;1662733;85;21343;-77
2021/04/08 09:43:54;;;;;;;6.60;3.55;;;;;;;8.90;39.63;100025.00;1658828;85;21216;-76
2021/04/08 09:47:07;;;;;;;9.08;4.25;;;;;;;9.00;40.24;100024.81;1691713;82;21303;-78
2021/04/08 09:50:14;;;;;;;6.00;3.65;;;;;;;9.09;39.16;100026.51;1673927;82;21316;-78
2021/04/08 09:53:25;;;;;;;7.75;4.03;;;;;;;9.16;39.31;100024.77;1710429;82;21263;-77
2021/04/08 09:56:58;;;;;;;8.15;4.05;;;;;;;9.18;39.17;100017.80;1703844;82;22255;-79
2021/04/08 10:00:06;;;;;;;6.15;3.52;;;;;;;9.09;38.24;100041.52;1709852;82;21221;-78
2021/04/08 10:03:13;;;;;;;8.38;4.60;;;;;;;9.04;39.71;100047.16;1664663;82;21169;-78
2021/04/08 10:06:44;;;;;;;7.92;4.65;;;;;;;9.12;39.47;100039.78;1713984;82;21319;-77
2021/04/08 10:09:52;;;;;;;6.90;4.62;;;;;;;9.11;39.51;100050.87;1732651;81;21315;-78
2021/04/08 10:13:02;;;;;;;7.10;4.62;;;;;;;8.99;39.64;100044.95;1734627;81;21303;-78
2021/04/08 10:16:17;;;;;;;7.45;4.05;;;;;;;8.96;41.27;100053.46;1693342;83;21287;-79
2021/04/08 10:19:23;;;;;;;6.72;3.80;;;;;;;8.92;39.02;100048.85;1719261;83;21291;-78
2021/04/08 10:22:30;;;;;;;7.65;4.00;;;;;;;8.85;39.54;100056.04;1698172;83;21183;-78
2021/04/08 10:25:36;;;;;;;5.65;2.60;;;;;;;8.90;39.39;100052.28;1655945;86;21393;-79
2021/04/08 10:28:54;;;;;;;6.03;3.17;;;;;;;9.05;38.19;100063.86;1690571;83;21386;-78
2021/04/08 10:32:01;;;;;;;7.25;3.85;;;;;;;9.16;37.60;100062.12;1659393;83;21292;-78
2021/04/08 10:35:09;;;;;;;10.18;3.80;;;;;;;9.26;38.34;100062.78;1687938;83;21281;-78
2021/04/08 10:38:16;;;;;;;5.28;3.83;;;;;;;9.45;39.56;100077.92;1645134;85;21303;-78
2021/04/08 10:41:27;;;;;;;11.63;3.62;;;;;;;9.63;38.50;100073.09;1717433;82;21288;-78
2021/04/08 10:44:39;;;;;;;;;;;;;;;9.68;37.14;100081.60;1721325;82;21277;-78
2021/04/08 10:47:44;;;;;;;6.42;3.50;;;;;;;9.73;38.07;100079.70;1716471;82;20228;-78
2021/04/08 10:50:51;;;;;;;7.80;3.22;;;;;;;9.83;38.63;100076.25;1720328;83;21316;-78
2021/04/08 10:53:57;;;;;;;5.97;2.90;;;;;;;9.99;38.76;100083.54;1655805;86;21220;-78
2021/04/08 10:57:05;;;;;;;5.97;2.87;;;;;;;10.12;37.55;100083.83;1716124;82;21298;-79
2021/04/08 11:00:19;;;;;;;5.53;3.00;;;;;;;10.19;37.45;100091.63;1715767;82;21325;-77
2021/04/08 11:03:26;;;;;;;6.28;3.90;;;;;;;10.18;37.26;100085.83;1713741;82;21675;-79
2021/04/08 11:06:32;;;;;;;9.13;4.08;;;;;;;10.12;36.91;100096.64;1714201;82;21348;-78
2021/04/08 11:09:37;;;;;;;9.10;3.52;;;;;;;10.12;36.57;100096.64;1711394;82;21201;-76
2021/04/08 11:12:43;;;;;;;6.72;4.03;;;;;;;10.11;35.87;100106.69;1716709;83;21236;-77
2021/04/08 11:15:48;;;;;;;8.80;4.30;;;;;;;10.03;36.52;100104.02;1715186;82;21229;-76
2021/04/08 11:18:56;;;;;;;6.42;3.00;;;;;;;9.97;37.21;100104.22;1709513;82;21331;-76
2021/04/08 11:22:01;;;;;;;6.72;3.60;;;;;;;9.95;37.75;100093.97;1707360;82;21343;-78
2021/04/08 11:25:07;;;;;;;7.62;3.30;;;;;;;9.88;37.71;100097.57;1712186;82;22294;-76
2021/04/08 11:28:14;;;;;;;5.50;3.15;;;;;;;9.82;38.84;100094.19;1713990;82;21250;-77
2021/04/08 11:31:25;;;;;;;8.13;3.72;;;;;;;9.73;38.42;100091.48;1711953;82;21201;-76
2021/04/08 11:34:29;;;;;;;6.17;3.25;;;;;;;9.74;38.98;100101.92;1713377;82;21308;-77
2021/04/08 11:37:43;;;;;;;4.15;2.50;;;;;;;9.92;38.53;100108.48;1708301;82;21197;-77
2021/04/08 11:40:53;;;;;;;12.75;2.60;;;;;;;10.08;36.81;100114.42;1712071;83;21304;-77
2021/04/08 11:43:59;;;;;;;4.78;3.37;;;;;;;10.15;36.76;100106.67;1715921;83;21234;-78
2021/04/08 11:47:09;;;;;;;6.67;3.15;;;;;;;10.17;36.79;100104.63;1719319;83;21283;-78
2021/04/08 11:50:17;;;;;;;7.47;3.37;;;;;;;10.14;34.93;100102.77;1719158;82;21158;-77
2021/04/08 11:53:25;;;;;;;6.35;3.05;;;;;;;10.08;34.72;100109.80;1718167;82;21863;-77
2021/04/08 11:56:44;;;;;;;4.08;2.90;;;;;;;10.09;35.09;100095.62;1711883;83;21348;-78
2021/04/08 11:59:49;;;;;;;6.17;3.10;;;;;;;10.12;34.38;100105.69;1711245;83;21630;-78
2021/04/08 12:02:56;;;;;;;5.08;3.40;;;;;;;10.11;34.63;100108.06;1713565;83;21185;-77
2021/04/08 12:06:01;;;;;;;5.70;3.17;;;;;;;10.06;34.08;100109.62;1711811;82;22376;-78
2021/04/08 12:09:08;;;;;;;5.65;3.33;;;;;;;10.03;35.24;100114.10;1711161;82;21238;-77
2021/04/08 12:12:14;;;;;;;6.85;3.35;;;;;;;10.04;35.12;100110.33;1714175;82;21347;-78
2021/04/08 12:15:20;;;;;;;8.40;2.90;;;;;;;10.00;34.09;100108.46;1719575;82;21296;-78
2021/04/08 12:18:30;;;;;;;4.95;2.80;;;;;;;9.96;33.98;100109.84;1716533;83;21150;-77
2021/04/08 12:21:36;;;;;;;4.97;1.98;;;;;;;9.98;33.85;100114.63;1710942;83;21316;-78
2021/04/08 12:24:41;;;;;;;4.58;2.00;;;;;;;10.02;31.80;100111.89;1715331;83;21174;-77
2021/04/08 12:27:47;;;;;;;4.75;2.30;;;;;;;10.05;30.82;100110.14;1718734;83;21183;-77
2021/04/08 12:31:02;;;;;;;4.15;1.80;;;;;;;10.05;30.64;100115.61;1716832;83;21308;-78
2021/04/08 12:34:07;;;;;;;5.78;2.47;;;;;;;10.03;31.02;100118.20;1719979;83;21284;-78
2021/04/08 12:37:12;;;;;;;4.12;2.37;;;;;;;10.03;32.13;100105.91;1716154;82;21308;-77
2021/04/08 12:40:20;;;;;;;5.30;2.22;;;;;;;10.04;32.49;100108.45;1717891;82;21855;-78
2021/04/08 12:43:25;;;;;;;5.08;3.02;;;;;;;10.06;33.61;100109.11;1680416;83;21255;-78
2021/04/08 12:46:31;;;;;;;5.45;2.70;;;;;;;10.06;33.28;100100.06;1684138;84;21748;-78
2021/04/08 12:49:37;;;;;;;6.10;3.00;;;;;;;9.99;32.74;100091.22;1686789;84;21306;-77
2021/04/08 12:52:42;;;;;;;5.45;2.62;;;;;;;9.81;33.08;100085.66;1659446;85;21173;-77
2021/04/08 12:55:48;;;;;;;5.10;2.83;;;;;;;9.63;34.25;100098.19;1681696;84;21279;-78
2021/04/08 12:58:54;;;;;;;4.75;2.10;;;;;;;9.48;33.95;100096.69;1718317;83;21259;-77
2021/04/08 13:01:59;;;;;;;5.40;2.50;;;;;;;9.36;34.80;100113.09;1716811;83;21651;-77
2021/04/08 13:05:03;;;;;;;5.12;2.95;;;;;;;9.30;35.28;100110.54;1719562;83;21252;-77
2021/04/08 13:08:05;;;;;;;4.72;2.65;;;;;;;9.24;34.91;100115.85;1716655;83;21169;-78
2021/04/08 13:10:56;;;;;;;3.20;2.10;;;;;;;9.22;35.11;100120.09;1715695;83;21287;-77
2021/04/08 13:14:02;;;;;;;4.85;2.42;;;;;;;9.28;35.46;100131.71;1713017;82;21272;-78
2021/04/08 13:17:08;;;;;;;4.37;2.40;;;;;;;9.33;35.70;100120.28;1720747;82;21698;-77
2021/04/08 13:20:18;;;;;;;6.12;3.87;;;;;;;9.33;35.59;100114.30;1721080;83;21651;-78
2021/04/08 13:23:23;;;;;;;5.75;3.22;;;;;;;9.33;35.61;100118.39;1718208;82;21264;-77
2021/04/08 13:26:29;;;;;;;5.78;3.47;;;;;;;9.26;35.02;100116.52;1721400;83;21790;-77
2021/04/08 13:29:35;;;;;;;7.05;3.15;;;;;;;9.18;34.07;100115.52;1714021;83;21289;-78
2021/04/08 13:32:40;;;;;;;6.12;2.92;;;;;;;9.13;35.27;100125.25;1714849;82;21470;-77
2021/04/08 13:35:47;;;;;;;4.65;2.92;;;;;;;9.08;34.92;100133.06;1716460;83;21336;-77
2021/04/08 13:38:52;;;;;;;4.35;2.80;;;;;;;9.06;35.04;100130.52;1713919;83;21159;-78
2021/04/08 13:41:58;;;;;;;4.67;3.00;;;;;;;9.05;35.24;100137.52;1723793;83;21276;-77
2021/04/08 13:45:03;;;;;;;5.53;3.20;;;;;;;9.03;35.78;100132.73;1724024;83;21643;-78
2021/04/08 13:48:09;;;;;;;4.58;2.77;;;;;;;9.11;35.28;100125.41;1722546;83;21183;-78
2021/04/08 13:51:14;;;;;;;5.50;3.20;;;;;;;9.23;35.18;100120.46;1714783;83;21430;-77
2021/04/08 13:54:20;;;;;;;5.55;2.72;;;;;;;9.31;34.22;100119.06;1712688;83;21259;-77
2021/04/08 13:57:24;;;;;;;4.17;2.40;;;;;;;9.33;32.99;100127.95;1721918;83;21193;-78
2021/04/08 14:00:30;;;;;;;8.03;2.70;;;;;;;9.30;32.95;100132.37;1720200;83;21261;-78
2021/04/08 14:03:36;;;;;;;5.87;2.85;;;;;;;9.21;33.85;100135.63;1695713;84;21825;-78
2021/04/08 14:06:41;;;;;;;4.72;2.67;;;;;;;9.15;33.71;100132.73;1696233;84;21819;-77
2021/04/08 14:09:46;;;;;;;6.25;2.77;;;;;;;9.10;32.73;100145.53;1696174;84;21228;-77
2021/04/08 14:12:51;;;;;;;9.40;3.15;;;;;;;9.10;33.66;100141.95;1696348;84;21331;-77
2021/04/08 14:15:57;;;;;;;8.85;3.45;;;;;;;9.04;33.29;100140.77;1699158;84;21347;-77
2021/04/08 14:19:03;;;;;;;4.10;2.70;;;;;;;9.04;34.40;100144.02;1698050;84;21206;-77
2021/04/08 14:22:09;;;;;;;7.87;3.47;;;;;;;9.07;34.21;100150.47;1698416;84;21327;-77
2021/04/08 14:25:18;;;;;;;6.80;3.40;;;;;;;9.10;35.03;100152.87;1698413;84;21307;-77
2021/04/08 14:28:23;;;;;;;5.70;2.67;;;;;;;9.12;34.73;100158.48;1698382;84;21370;-77
2021/04/08 14:31:29;;;;;;;6.20;3.05;;;;;;;9.14;34.98;100140.59;1697146;84;21265;-77
2021/04/08 14:34:35;;;;;;;10.15;4.87;;;;;;;9.18;34.66;100140.59;1698461;84;21202;-77
2021/04/08 14:37:42;;;;;;;5.67;2.90;;;;;;;9.20;34.36;100146.72;1697097;84;21311;-78
2021/04/08 14:40:48;;;;;;;10.53;4.20;;;;;;;9.20;34.31;100148.08;1697071;84;21233;-77
2021/04/08 14:43:55;;;;;;;7.28;3.52;;;;;;;9.18;35.28;100154.23;1699368;84;21221;-77